Michipicoten — CFG8060 — position and weather

sailwx.info

Track history (hours):
 
Tides and Currents Weather Stations Pressure Air Temp Water Temp Dewpoint Dewpoint Depression Visibility Wind Speed Wind Dir Waves Ship Positions

Michipicoten

Last reported at 2016-May-28 20:33 UTC. Time now 2016-May-28 20:37 UTC.
Position N 46°45' W 092°05'.

Length 213 m; draft 7.3 m.

Type: Cargo ship. MMSI: 316002501.

Date/timePositionNaut miles runAvg speedWind from/ knotsBaromVisibWave heightAir tempDewpointWater temp
2016-May-28 20:33N 46°45' W 092°05'1110.9
2016-May-28 19:34N 46°51' W 091°52'1413.9
2016-May-28 18:33N 46°56' W 091°33'29610.8
2016-May-27 15:07N 46°31' W 084°23'0 0.0
2016-May-27 14:33N 46°31' W 084°23'5 4.2
2016-May-27 13:18N 46°28' W 084°28'810.7
2016-May-27 12:33N 46°32' W 084°39'1313.2
2016-May-27 11:33N 46°42' W 084°50'1312.7
2016-May-27 10:33N 46°51' W 085°04'1313.2
2016-May-27 09:32N 46°56' W 085°22'26612.7
2016-May-26 12:33N 46°52' W 091°51'1211.9
2016-May-26 11:33N 46°46' W 092°06'2 1.8
2016-May-26 10:34N 46°45' W 092°08'0 0.0
2016-May-26 09:34N 46°45' W 092°08'0 0.0
2016-May-26 08:34N 46°45' W 092°08'0 0.1
2016-May-26 07:33N 46°45' W 092°08'0 0.0
2016-May-26 06:34N 46°45' W 092°08'0 0.1
2016-May-26 05:33N 46°45' W 092°08'2 2.1
2016-May-26 04:33N 46°47' W 092°06'1313.2
2016-May-26 03:32N 46°52' W 091°48'1413.9
2016-May-26 02:33N 46°57' W 091°29'28713.0
2016-May-25 04:31N 46°27' W 084°33'301 9.7
2016-May-23 21:32N 46°52' W 091°50'1212.7
2016-May-23 20:33N 46°46' W 092°06'2 2.0
2016-May-23 19:33N 46°45' W 092°08'0 0.0
2016-May-23 18:33N 46°45' W 092°08'0 0.0
2016-May-23 17:33N 46°45' W 092°08'0 0.0
2016-May-23 16:33N 46°45' W 092°08'0 0.0
2016-May-23 15:33N 46°45' W 092°08'0 0.0
2016-May-23 14:33N 46°45' W 092°08'2 1.6
2016-May-23 13:33N 46°45' W 092°06'0 0.0
2016-May-23 12:33N 46°45' W 092°06'0 0.0
2016-May-23 11:34N 46°45' W 092°06'4 3.6
2016-May-23 10:33N 46°48' W 092°02'1413.9
2016-May-23 09:33N 46°53' W 091°43'29313.1
2016-May-22 11:10N 46°30' W 084°37'6 9.6
2016-May-22 10:30N 46°28' W 084°28'4 4.7
2016-May-22 09:33N 46°31' W 084°23'0 0.0
2016-May-22 08:33N 46°31' W 084°23'0 0.0
2016-May-22 07:32N 46°31' W 084°23'30110.0
2016-May-21 01:17N 47°01' W 091°40'4 5.1
2016-May-21 00:33N 47°01' W 091°35'29113.1
2016-May-20 02:19N 46°27' W 084°33'  
Track history (hours):
 
Tides and Currents Weather Stations Pressure Air Temp Water Temp Dewpoint Dewpoint Depression Visibility Wind Speed Wind Dir Waves Ship Positions

Michipicoten

Last reported at 2016-May-28 20:33 UTC. Time now 2016-May-28 20:37 UTC.
Position N 46°45' W 092°05'.

Length 213 m; draft 7.3 m.

Type: Cargo ship. MMSI: 316002501.

Date/timePositionNaut miles runAvg speedWind from/ knotsBaromVisibWave heightAir tempDewpointWater temp
2016-May-28 20:33N 46°45' W 092°05'1110.9
2016-May-28 19:34N 46°51' W 091°52'1413.9
2016-May-28 18:33N 46°56' W 091°33'29610.8
2016-May-27 15:07N 46°31' W 084°23'0 0.0
2016-May-27 14:33N 46°31' W 084°23'5 4.2
2016-May-27 13:18N 46°28' W 084°28'810.7
2016-May-27 12:33N 46°32' W 084°39'1313.2
2016-May-27 11:33N 46°42' W 084°50'1312.7
2016-May-27 10:33N 46°51' W 085°04'1313.2
2016-May-27 09:32N 46°56' W 085°22'26612.7
2016-May-26 12:33N 46°52' W 091°51'1211.9
2016-May-26 11:33N 46°46' W 092°06'2 1.8
2016-May-26 10:34N 46°45' W 092°08'0 0.0
2016-May-26 09:34N 46°45' W 092°08'0 0.0
2016-May-26 08:34N 46°45' W 092°08'0 0.1
2016-May-26 07:33N 46°45' W 092°08'0 0.0
2016-May-26 06:34N 46°45' W 092°08'0 0.1
2016-May-26 05:33N 46°45' W 092°08'2 2.1
2016-May-26 04:33N 46°47' W 092°06'1313.2
2016-May-26 03:32N 46°52' W 091°48'1413.9
2016-May-26 02:33N 46°57' W 091°29'28713.0
2016-May-25 04:31N 46°27' W 084°33'301 9.7
2016-May-23 21:32N 46°52' W 091°50'1212.7
2016-May-23 20:33N 46°46' W 092°06'2 2.0
2016-May-23 19:33N 46°45' W 092°08'0 0.0
2016-May-23 18:33N 46°45' W 092°08'0 0.0
2016-May-23 17:33N 46°45' W 092°08'0 0.0
2016-May-23 16:33N 46°45' W 092°08'0 0.0
2016-May-23 15:33N 46°45' W 092°08'0 0.0
2016-May-23 14:33N 46°45' W 092°08'2 1.6
2016-May-23 13:33N 46°45' W 092°06'0 0.0
2016-May-23 12:33N 46°45' W 092°06'0 0.0
2016-May-23 11:34N 46°45' W 092°06'4 3.6
2016-May-23 10:33N 46°48' W 092°02'1413.9
2016-May-23 09:33N 46°53' W 091°43'29313.1
2016-May-22 11:10N 46°30' W 084°37'6 9.6
2016-May-22 10:30N 46°28' W 084°28'4 4.7
2016-May-22 09:33N 46°31' W 084°23'0 0.0
2016-May-22 08:33N 46°31' W 084°23'0 0.0
2016-May-22 07:32N 46°31' W 084°23'30110.0
2016-May-21 01:17N 47°01' W 091°40'4 5.1
2016-May-21 00:33N 47°01' W 091°35'29113.1
2016-May-20 02:19N 46°27' W 084°33'  

Dump ship's entire track history